Time;durP1;ratioP1;P1;durP2;ratioP2;P2;SDS_P1;SDS_P2;PMS_P1;PMS_P2;Temp;Humidity;BMP_temperature;BMP_pressure;BME280_temperature;BME280_humidity;BME280_pressure;Samples;Min_cycle;Max_cycle;Signal;HPM_P1;HPM_P2
2022/07/12 00:01:49;;;;;;;4.13;2.53;;;;;;;13.06;100.00;97395.50;5026448;28;20045;-73
2022/07/12 00:04:14;;;;;;;3.33;2.13;;;;;;;13.10;100.00;97388.59;5025537;28;20037;-73
2022/07/12 00:06:40;;;;;;;3.40;2.15;;;;;;;13.19;100.00;97390.91;5026666;28;20176;-73
2022/07/12 00:09:06;;;;;;;3.70;2.55;;;;;;;13.18;100.00;97384.72;5023346;28;20141;-73
2022/07/12 00:11:33;;;;;;;3.97;2.40;;;;;;;13.18;100.00;97391.97;5026886;28;20060;-73
2022/07/12 00:13:58;;;;;;;3.58;2.20;;;;;;;13.16;100.00;97389.53;5029095;28;20037;-73
2022/07/12 00:16:24;;;;;;;4.07;2.20;;;;;;;13.18;100.00;97392.78;5025612;28;20106;-73
2022/07/12 00:18:49;;;;;;;4.65;2.55;;;;;;;13.18;100.00;97387.41;5025521;28;20091;-73
2022/07/12 00:21:15;;;;;;;3.75;2.60;;;;;;;13.20;100.00;97395.25;5025758;28;20683;-73
2022/07/12 00:23:40;;;;;;;4.90;2.83;;;;;;;13.15;100.00;97392.41;5030409;28;20116;-73
2022/07/12 00:26:06;;;;;;;4.45;2.42;;;;;;;13.01;100.00;97386.56;5028003;28;20328;-73
2022/07/12 00:28:31;;;;;;;5.00;2.47;;;;;;;12.83;100.00;97391.06;5023546;28;20041;-73
2022/07/12 00:30:58;;;;;;;5.65;2.60;;;;;;;12.86;100.00;97381.72;5026602;28;20046;-73
2022/07/12 00:33:24;;;;;;;4.15;2.65;;;;;;;12.86;100.00;97388.97;5022654;28;20094;-73
2022/07/12 00:35:50;;;;;;;5.40;2.90;;;;;;;12.86;100.00;97373.66;5028823;28;20033;-73
2022/07/12 00:38:15;;;;;;;5.82;2.92;;;;;;;12.81;100.00;97382.44;5026273;28;20041;-73
2022/07/12 00:40:41;;;;;;;4.18;2.90;;;;;;;12.79;100.00;97370.31;5022584;28;20065;-73
2022/07/12 00:43:07;;;;;;;4.30;2.63;;;;;;;12.79;100.00;97373.00;5023584;28;20447;-73
2022/07/12 00:45:32;;;;;;;3.80;2.70;;;;;;;12.79;100.00;97378.34;5026089;28;20025;-73
2022/07/12 00:47:59;;;;;;;5.00;2.95;;;;;;;12.77;100.00;97377.78;5026551;28;20037;-73
2022/07/12 00:50:24;;;;;;;5.47;2.90;;;;;;;12.76;100.00;97373.44;5034178;28;20043;-73
2022/07/12 00:52:52;;;;;;;4.35;2.78;;;;;;;12.73;100.00;97369.38;5029841;28;20049;-73
2022/07/12 00:55:20;;;;;;;3.88;2.67;;;;;;;12.70;100.00;97364.50;5026066;28;20454;-74
2022/07/12 00:57:47;;;;;;;4.10;2.85;;;;;;;12.72;100.00;97366.94;5024144;28;20171;-73
2022/07/12 01:00:18;;;;;;;4.47;2.78;;;;;;;12.73;100.00;97349.78;5023576;28;20025;-73
2022/07/12 01:02:44;;;;;;;;;;;;;;;12.67;100.00;97354.22;5025099;28;20048;-73
2022/07/12 01:05:10;;;;;;;4.82;2.50;;;;;;;12.67;100.00;97362.28;5023666;28;19943;-74
2022/07/12 01:07:36;;;;;;;4.93;3.33;;;;;;;12.69;100.00;97348.63;5025211;28;20060;-73
2022/07/12 01:10:04;;;;;;;5.18;2.70;;;;;;;12.66;100.00;97359.84;5025510;28;20041;-73
2022/07/12 01:12:30;;;;;;;5.20;2.90;;;;;;;12.63;100.00;97360.34;5024210;28;20033;-73
2022/07/12 01:14:56;;;;;;;5.00;3.05;;;;;;;12.63;100.00;97358.47;5024569;28;20035;-73
2022/07/12 01:17:24;;;;;;;6.72;3.03;;;;;;;12.64;100.00;97361.97;5024357;28;20559;-73
2022/07/12 01:19:52;;;;;;;6.55;3.05;;;;;;;12.58;100.00;97358.34;5026252;28;20464;-73
2022/07/12 01:22:18;;;;;;;4.30;3.40;;;;;;;12.54;100.00;97362.59;5038535;28;20116;-73
2022/07/12 01:24:45;;;;;;;5.20;3.60;;;;;;;12.53;100.00;97364.47;5026328;28;20032;-73
2022/07/12 01:27:11;;;;;;;4.97;3.15;;;;;;;12.48;100.00;97361.66;5023734;28;20033;-73
2022/07/12 01:29:37;;;;;;;5.47;3.40;;;;;;;12.28;100.00;97362.06;5025278;28;20061;-73
2022/07/12 01:34:56;;;;;;;5.32;3.17;;;;;;;12.02;100.00;97367.13;5004807;28;20479;-74
2022/07/12 01:37:23;;;;;;;4.57;2.92;;;;;;;12.06;100.00;97357.53;5002212;28;20044;-73
2022/07/12 01:39:54;;;;;;;5.60;3.10;;;;;;;11.98;100.00;97362.25;5002992;28;20040;-73
2022/07/12 01:42:21;;;;;;;6.13;3.10;;;;;;;11.90;100.00;97361.75;5001945;28;20161;-73
2022/07/12 01:44:48;;;;;;;4.30;2.90;;;;;;;11.90;100.00;97359.91;5001768;28;20033;-73
2022/07/12 01:47:14;;;;;;;5.50;3.15;;;;;;;11.97;100.00;97354.41;5001779;28;20555;-73
2022/07/12 01:49:39;;;;;;;5.82;3.60;;;;;;;11.97;100.00;97354.41;5003571;28;20065;-73
2022/07/12 01:52:05;;;;;;;5.88;3.53;;;;;;;11.95;100.00;97346.59;5002522;28;20041;-73
2022/07/12 01:54:32;;;;;;;7.22;3.38;;;;;;;11.98;100.00;97348.84;5002898;28;20029;-73
2022/07/12 01:56:58;;;;;;;5.13;3.63;;;;;;;11.96;100.00;97337.50;5004852;28;20051;-73
2022/07/12 01:59:23;;;;;;;5.88;3.20;;;;;;;11.93;100.00;97345.22;5000573;28;20296;-73
2022/07/12 02:01:49;;;;;;;9.27;3.67;;;;;;;11.93;100.00;97347.91;4990000;28;20099;-73
2022/07/12 02:04:20;;;;;;;4.38;3.28;;;;;;;11.93;100.00;97345.22;5020555;28;20040;-73
2022/07/12 02:06:46;;;;;;;6.40;3.28;;;;;;;11.92;100.00;97351.63;5024605;28;20066;-73
2022/07/12 02:09:12;;;;;;;4.38;3.10;;;;;;;11.81;100.00;97345.22;5018506;28;20481;-73
2022/07/12 02:11:38;;;;;;;5.47;3.55;;;;;;;11.84;100.00;97352.81;5023350;28;20064;-73
2022/07/12 02:14:07;;;;;;;4.78;3.10;;;;;;;11.84;100.00;97354.69;5021553;28;20036;-74
2022/07/12 02:16:35;;;;;;;4.30;3.03;;;;;;;11.83;100.00;97363.75;5025109;28;20040;-73
2022/07/12 02:19:01;;;;;;;6.15;3.50;;;;;;;11.79;100.00;97357.22;5024017;28;20055;-73
2022/07/12 02:21:26;;;;;;;5.60;3.08;;;;;;;11.79;100.00;97349.97;5023301;28;20476;-73
2022/07/12 02:23:52;;;;;;;3.92;3.00;;;;;;;11.81;100.00;97355.13;5022126;28;20033;-73
2022/07/12 02:26:18;;;;;;;4.28;3.10;;;;;;;11.72;100.00;97351.97;5022921;28;20041;-73
2022/07/12 02:28:43;;;;;;;5.35;3.08;;;;;;;11.64;100.00;97355.00;5023467;28;20438;-73
2022/07/12 02:31:09;;;;;;;5.32;3.05;;;;;;;11.64;100.00;97344.28;5022691;28;20048;-73
2022/07/12 02:33:35;;;;;;;4.45;3.10;;;;;;;11.67;100.00;97349.16;5023395;28;20432;-73
2022/07/12 02:36:01;;;;;;;4.38;3.13;;;;;;;11.66;100.00;97351.03;5018980;28;20025;-71
2022/07/12 02:38:27;;;;;;;6.32;3.28;;;;;;;11.55;100.00;97362.56;5022123;28;20120;-71
2022/07/12 02:40:53;;;;;;;5.72;3.58;;;;;;;11.57;100.00;97356.97;5027059;28;20041;-71
2022/07/12 02:43:22;;;;;;;4.63;3.38;;;;;;;11.58;100.00;97364.78;5023967;28;20253;-71
2022/07/12 02:45:48;;;;;;;6.05;3.90;;;;;;;11.63;100.00;97354.19;5025007;28;20052;-71
2022/07/12 02:48:16;;;;;;;5.38;2.95;;;;;;;11.65;100.00;97354.75;5021082;28;20025;-71
2022/07/12 02:50:42;;;;;;;5.40;2.90;;;;;;;11.65;100.00;97365.47;5024276;28;20041;-71
2022/07/12 02:53:10;;;;;;;5.13;3.28;;;;;;;11.64;100.00;97360.34;5022545;28;20032;-71
2022/07/12 02:55:36;;;;;;;4.18;2.90;;;;;;;11.60;100.00;97368.06;5023845;28;20034;-71
2022/07/12 02:58:02;;;;;;;5.43;3.30;;;;;;;11.54;100.00;97368.16;5022227;28;20416;-71
2022/07/12 03:00:29;;;;;;;5.68;3.08;;;;;;;11.47;100.00;97368.28;5021269;28;20039;-71
2022/07/12 03:02:54;;;;;;;4.95;2.97;;;;;;;11.41;100.00;97366.50;5024843;28;20029;-71
2022/07/12 03:05:20;;;;;;;4.22;3.05;;;;;;;11.36;100.00;97380.63;5021493;28;20095;-71
2022/07/12 03:07:45;;;;;;;6.53;3.20;;;;;;;11.34;100.00;97376.53;5022336;28;20040;-71
2022/07/12 03:10:11;;;;;;;4.75;2.97;;;;;;;11.36;100.00;97380.63;5023111;28;20041;-71
2022/07/12 03:12:37;;;;;;;8.40;3.10;;;;;;;11.36;100.00;97379.78;5023036;28;20462;-73
2022/07/12 03:15:04;;;;;;;7.13;3.08;;;;;;;11.38;100.00;97389.25;5023615;28;20037;-73
2022/07/12 03:17:30;;;;;;;5.30;3.05;;;;;;;11.38;100.00;97383.06;5022693;28;20373;-73
2022/07/12 03:19:55;;;;;;;4.72;3.10;;;;;;;11.41;100.00;97383.41;5020150;28;20032;-73
2022/07/12 03:22:21;;;;;;;4.10;2.97;;;;;;;11.44;100.00;97385.66;5023138;28;20068;-73
2022/07/12 03:24:46;;;;;;;4.82;3.42;;;;;;;11.41;100.00;97385.28;5026161;28;20172;-73
2022/07/12 03:27:11;;;;;;;5.15;3.30;;;;;;;11.44;100.00;97382.16;5028682;28;20033;-73
2022/07/12 03:29:37;;;;;;;5.53;3.30;;;;;;;11.47;100.00;97379.00;5024766;28;20683;-73
2022/07/12 03:32:03;;;;;;;6.03;3.50;;;;;;;11.40;100.00;97375.59;5027045;28;20041;-73
2022/07/12 03:34:29;;;;;;;5.72;4.18;;;;;;;11.30;100.00;97368.16;5025505;28;20369;-73
2022/07/12 03:36:54;;;;;;;6.43;3.50;;;;;;;11.26;100.00;97383.03;5026565;28;20289;-73
2022/07/12 03:39:20;;;;;;;7.35;3.80;;;;;;;11.20;100.00;97386.63;5023569;28;20419;-73
2022/07/12 03:41:45;;;;;;;8.95;3.75;;;;;;;11.28;100.00;97388.97;5028902;28;20601;-73
2022/07/12 03:44:10;;;;;;;5.50;3.70;;;;;;;11.32;100.00;97392.03;5027013;28;20029;-73
2022/07/12 03:46:36;;;;;;;7.07;3.85;;;;;;;11.36;100.00;97391.34;5025960;28;20032;-73
2022/07/12 03:49:02;;;;;;;5.00;3.50;;;;;;;11.41;100.00;97388.78;5026952;28;20032;-73
2022/07/12 03:51:27;;;;;;;8.00;4.22;;;;;;;11.39;100.00;97388.19;5028261;28;20025;-73
2022/07/12 03:53:53;;;;;;;9.63;4.32;;;;;;;11.41;100.00;97394.13;5032517;28;20437;-73
2022/07/12 03:59:03;;;;;;;6.63;4.32;;;;;;;11.44;100.00;97390.19;5027348;28;20040;-73
2022/07/12 04:01:31;;;;;;;7.25;4.43;;;;;;;11.41;100.00;97398.69;5029767;28;20120;-73
2022/07/12 04:03:57;;;;;;;7.85;4.30;;;;;;;11.40;100.00;97397.88;5030585;28;20485;-72
2022/07/12 04:06:22;;;;;;;10.18;5.55;;;;;;;11.43;100.00;97401.94;5026119;28;20079;-73
2022/07/12 04:08:48;;;;;;;7.78;4.35;;;;;;;11.42;100.00;97385.03;5025065;28;20111;-73
2022/07/12 04:11:13;;;;;;;7.60;5.13;;;;;;;11.46;100.00;97398.81;5025287;28;20064;-73
2022/07/12 04:13:39;;;;;;;6.53;4.90;;;;;;;11.51;100.00;97400.78;5028724;28;20156;-72
2022/07/12 04:16:05;;;;;;;8.25;5.15;;;;;;;11.56;100.00;97406.28;5027928;28;20029;-73
2022/07/12 04:18:31;;;;;;;11.68;4.88;;;;;;;11.58;100.00;97404.16;5027946;28;20317;-72
2022/07/12 04:20:59;;;;;;;8.35;5.00;;;;;;;11.61;100.00;97407.22;5026959;28;20068;-72
2022/07/12 04:23:24;;;;;;;8.52;5.20;;;;;;;11.65;100.00;97402.19;5025838;28;20374;-72
2022/07/12 04:25:51;;;;;;;7.10;4.85;;;;;;;11.67;100.00;97397.41;5037383;28;20029;-72
2022/07/12 04:28:16;;;;;;;11.30;5.43;;;;;;;11.65;100.00;97399.50;5029579;28;20476;-72
2022/07/12 04:30:48;;;;;;;8.00;5.45;;;;;;;11.64;100.00;97408.63;5029108;28;20150;-73
2022/07/12 04:33:14;;;;;;;12.02;6.03;;;;;;;11.68;100.00;97402.56;5024658;28;20423;-74
2022/07/12 04:35:40;;;;;;;7.93;5.25;;;;;;;11.78;100.00;97409.22;5027613;28;20025;-72
2022/07/12 04:38:07;;;;;;;9.27;5.30;;;;;;;11.84;100.00;97411.00;5024377;28;20039;-73
2022/07/12 04:40:33;;;;;;;8.05;5.97;;;;;;;11.92;100.00;97422.19;5025483;28;20453;-72
2022/07/12 04:42:58;;;;;;;8.00;5.53;;;;;;;12.01;100.00;97424.50;5028757;28;20103;-72
2022/07/12 04:45:24;;;;;;;8.13;5.32;;;;;;;12.09;100.00;97416.94;5024489;28;20096;-72
2022/07/12 04:47:49;;;;;;;11.65;5.60;;;;;;;12.17;100.00;97421.94;5025796;28;20125;-73
2022/07/12 04:50:15;;;;;;;10.57;6.03;;;;;;;12.24;100.00;97416.44;5026093;28;20162;-72
2022/07/12 04:52:40;;;;;;;8.45;5.30;;;;;;;12.34;100.00;97427.38;5041830;28;20095;-73
2022/07/12 04:55:06;;;;;;;7.25;5.22;;;;;;;12.42;100.00;97427.03;5029598;28;20029;-73
2022/07/12 04:57:32;;;;;;;8.55;5.45;;;;;;;12.49;100.00;97435.75;5028153;28;20051;-73
2022/07/12 04:59:58;;;;;;;8.57;6.00;;;;;;;12.55;100.00;97426.78;5026574;28;20060;-72
2022/07/12 05:02:23;;;;;;;10.63;5.95;;;;;;;12.63;100.00;97427.47;5025573;28;20124;-73
2022/07/12 05:04:49;;;;;;;10.57;7.13;;;;;;;12.73;100.00;97433.03;5025245;28;20477;-72
2022/07/12 05:07:14;;;;;;;12.43;6.30;;;;;;;12.82;100.00;97426.22;5027819;28;20219;-72
2022/07/12 05:09:40;;;;;;;9.75;7.32;;;;;;;12.95;100.00;97425.94;5032648;28;20025;-73
2022/07/12 05:12:06;;;;;;;10.88;7.20;;;;;;;13.04;100.00;97421.00;5024637;28;20061;-74
2022/07/12 05:14:31;;;;;;;8.07;5.97;;;;;;;13.12;100.00;97428.66;5023803;28;20092;-73
2022/07/12 05:16:57;;;;;;;11.43;6.38;;;;;;;13.20;100.00;97422.13;5025161;28;20033;-73
2022/07/12 05:19:23;;;;;;;10.40;6.35;;;;;;;13.31;100.00;97432.81;5019251;28;20429;-73
2022/07/12 05:21:49;;;;;;;9.98;6.68;;;;;;;13.40;100.00;97433.25;5027136;28;20655;-74
2022/07/12 05:24:14;;;;;;;11.25;6.97;;;;;;;13.51;100.00;97423.47;5024284;28;20368;-73
2022/07/12 05:26:41;;;;;;;10.70;5.85;;;;;;;13.62;100.00;97430.66;5025766;28;20103;-73
2022/07/12 05:29:06;;;;;;;6.50;4.88;;;;;;;13.73;100.00;97428.94;5021318;28;20055;-71
2022/07/12 05:31:32;;;;;;;9.57;4.70;;;;;;;13.82;100.00;97428.28;5020586;28;20129;-71
2022/07/12 05:33:57;;;;;;;5.97;4.38;;;;;;;13.92;100.00;97431.09;5025928;28;20045;-72
2022/07/12 05:36:23;;;;;;;6.72;4.43;;;;;;;14.03;100.00;97437.47;5019559;28;20065;-72
2022/07/12 05:38:49;;;;;;;5.47;4.07;;;;;;;14.15;100.00;97440.88;5024748;28;20067;-72
2022/07/12 05:41:15;;;;;;;6.13;4.20;;;;;;;14.25;100.00;97442.09;5023921;28;20058;-72
2022/07/12 05:43:40;;;;;;;6.88;3.40;;;;;;;14.35;100.00;97440.34;5024443;28;20021;-71
2022/07/12 05:46:06;;;;;;;5.03;3.60;;;;;;;14.48;100.00;97441.91;5021351;28;20325;-72
2022/07/12 05:48:32;;;;;;;5.07;3.38;;;;;;;14.61;100.00;97449.59;5029069;28;20615;-71
2022/07/12 05:53:21;;;;;;;7.25;3.33;;;;;;;14.74;100.00;97454.63;5026596;28;20045;-71
2022/07/12 05:53:43;;;;;;;4.80;3.55;;;;;;;14.84;100.00;97455.81;5026032;28;20372;-72
2022/07/12 05:56:08;;;;;;;5.85;3.60;;;;;;;14.95;100.00;97444.09;5021961;28;20029;-71
2022/07/12 05:58:34;;;;;;;7.57;4.18;;;;;;;15.03;100.00;97443.66;5024966;28;20068;-72
2022/07/12 06:00:59;;;;;;;6.50;4.43;;;;;;;15.06;100.00;97456.59;5024032;28;20107;-72
2022/07/12 06:03:24;;;;;;;10.40;4.28;;;;;;;15.08;100.00;97462.56;5022451;28;20262;-72
2022/07/12 06:05:50;;;;;;;6.68;4.22;;;;;;;15.14;100.00;97466.13;5025011;28;20048;-72
2022/07/12 06:08:16;;;;;;;6.18;4.07;;;;;;;15.19;100.00;97467.00;5021992;28;20037;-72
2022/07/12 06:10:41;;;;;;;6.65;4.20;;;;;;;15.26;100.00;97472.19;5024145;28;20047;-72
2022/07/12 06:13:06;;;;;;;5.95;4.03;;;;;;;15.32;100.00;97474.66;5024471;28;20091;-72
2022/07/12 06:15:32;;;;;;;8.25;4.43;;;;;;;15.37;100.00;97471.22;5023815;28;20431;-72
2022/07/12 06:17:58;;;;;;;5.72;3.60;;;;;;;15.45;100.00;97480.75;5025922;28;20064;-72
2022/07/12 06:20:23;;;;;;;7.25;3.88;;;;;;;15.50;100.00;97478.09;5021163;28;20212;-71
2022/07/12 06:22:49;;;;;;;7.15;4.30;;;;;;;15.54;100.00;97474.63;5023918;28;20065;-71
2022/07/12 06:25:14;;;;;;;7.65;4.32;;;;;;;15.59;100.00;97466.59;5021126;28;20037;-72
2022/07/12 06:27:40;;;;;;;6.50;4.28;;;;;;;15.63;100.00;97469.59;5024701;28;20041;-72
2022/07/12 06:30:06;;;;;;;5.70;3.13;;;;;;;15.67;100.00;97468.03;5023747;28;20491;-72
2022/07/12 06:32:32;;;;;;;5.40;3.30;;;;;;;15.73;100.00;97467.03;5023698;28;20407;-72
2022/07/12 06:34:58;;;;;;;5.18;3.00;;;;;;;15.81;100.00;97463.03;5030025;28;20051;-73
2022/07/12 06:37:24;;;;;;;6.20;3.60;;;;;;;15.88;100.00;97467.16;5021673;28;20041;-72
2022/07/12 06:39:49;;;;;;;6.28;3.38;;;;;;;15.95;100.00;97463.41;5024162;28;20040;-72
2022/07/12 06:42:14;;;;;;;4.88;3.10;;;;;;;15.99;100.00;97465.31;5022185;28;20065;-72
2022/07/12 06:44:51;;;;;;;4.25;2.70;;;;;;;16.07;100.00;97469.44;5022537;28;20083;-72
2022/07/12 06:47:17;;;;;;;4.38;2.70;;;;;;;16.12;100.00;97462.19;5024955;28;20044;-72
2022/07/12 06:49:42;;;;;;;4.97;2.88;;;;;;;16.16;100.00;97455.19;5024304;28;20033;-72
2022/07/12 06:52:08;;;;;;;4.18;2.47;;;;;;;16.21;100.00;97454.41;5024877;28;20902;-72
2022/07/12 06:54:35;;;;;;;3.90;2.20;;;;;;;16.28;100.00;97457.72;5023231;28;20120;-73
2022/07/12 06:57:01;;;;;;;5.28;2.30;;;;;;;16.32;100.00;97452.59;5023913;28;20063;-72
2022/07/12 06:59:26;;;;;;;4.22;2.30;;;;;;;16.39;100.00;97459.38;5021249;28;20044;-72
2022/07/12 07:01:52;;;;;;;3.80;2.47;;;;;;;16.42;100.00;97458.88;5024972;28;20043;-72
2022/07/12 07:04:18;;;;;;;5.47;2.53;;;;;;;16.50;100.00;97467.53;5021321;28;20021;-72
2022/07/12 07:06:43;;;;;;;3.75;2.45;;;;;;;16.57;100.00;97460.00;5024972;28;20087;-72
2022/07/12 07:09:09;;;;;;;4.57;2.58;;;;;;;16.64;100.00;97455.19;5024063;28;20128;-72
2022/07/12 07:11:36;;;;;;;5.75;2.72;;;;;;;16.72;100.00;97460.13;5025908;28;20052;-72
2022/07/12 07:14:02;;;;;;;4.45;2.42;;;;;;;16.78;100.00;97459.06;5026789;28;20022;-73
2022/07/12 07:16:28;;;;;;;4.43;2.35;;;;;;;16.84;100.00;97459.91;5019569;28;20055;-73
2022/07/12 07:18:53;;;;;;;4.88;2.35;;;;;;;16.89;100.00;97463.47;5021344;28;20037;-73
2022/07/12 07:21:19;;;;;;;7.00;2.65;;;;;;;16.94;100.00;97463.47;5026265;28;20356;-73
2022/07/12 07:23:44;;;;;;;3.90;2.00;;;;;;;17.05;100.00;97464.31;5025280;28;20017;-73
2022/07/12 07:26:10;;;;;;;3.97;2.05;;;;;;;17.18;100.00;97471.91;5028890;28;20044;-73
2022/07/12 07:30:51;;;;;;;3.78;2.08;;;;;;;17.34;100.00;97461.16;5021004;28;20310;-73
2022/07/12 07:31:21;;;;;;;3.50;1.98;;;;;;;17.43;100.00;97454.97;5025311;28;20041;-72
2022/07/12 07:33:47;;;;;;;4.03;2.03;;;;;;;17.56;100.00;97461.72;5027289;28;20049;-73
2022/07/12 07:36:12;;;;;;;5.63;2.75;;;;;;;17.68;100.00;97450.66;5026254;28;20265;-72
2022/07/12 07:38:38;;;;;;;3.83;2.25;;;;;;;17.74;100.00;97453.13;5022593;28;20103;-73
2022/07/12 07:41:04;;;;;;;4.28;2.50;;;;;;;17.86;100.00;97460.16;5024046;28;20116;-73
2022/07/12 07:43:29;;;;;;;4.00;2.53;;;;;;;17.90;100.00;97456.66;5021722;28;20412;-73
2022/07/12 07:45:54;;;;;;;4.32;2.05;;;;;;;18.14;100.00;97453.38;5024238;28;20402;-72
2022/07/12 07:48:20;;;;;;;4.32;2.40;;;;;;;18.46;100.00;97461.19;5021825;28;20112;-73
2022/07/12 07:50:45;;;;;;;3.90;2.40;;;;;;;18.73;100.00;97474.41;5024158;28;20037;-73
2022/07/12 07:53:11;;;;;;;4.10;2.13;;;;;;;18.87;100.00;97468.13;5020522;28;20029;-73
2022/07/12 07:55:37;;;;;;;4.32;2.30;;;;;;;18.82;100.00;97472.75;5025271;28;20056;-74
2022/07/12 07:58:02;;;;;;;4.65;2.53;;;;;;;18.89;100.00;97473.25;5023058;28;20056;-73
2022/07/12 08:00:30;;;;;;;5.32;2.50;;;;;;;18.92;100.00;97467.31;5022412;28;20416;-73
2022/07/12 08:02:55;;;;;;;3.55;1.90;;;;;;;19.00;100.00;97469.44;5011429;28;20029;-74
2022/07/12 08:05:21;;;;;;;5.28;4.07;;;;;;;19.03;100.00;97468.88;5023333;28;20035;-73
2022/07/12 08:07:47;;;;;;;4.13;2.63;;;;;;;19.00;100.00;97471.34;5024421;28;20618;-74
2022/07/12 08:10:12;;;;;;;4.30;2.70;;;;;;;18.99;100.00;97469.69;5023989;28;20033;-73
2022/07/12 08:12:38;;;;;;;5.00;2.78;;;;;;;18.97;100.00;97474.59;5023817;28;20033;-73
2022/07/12 08:15:03;;;;;;;4.15;2.65;;;;;;;19.07;100.00;97475.38;5025543;28;20404;-73
2022/07/12 08:17:29;;;;;;;5.10;2.65;;;;;;;19.11;100.00;97468.28;5021093;28;20288;-73
2022/07/12 08:19:55;;;;;;;4.32;2.30;;;;;;;19.12;100.00;97467.19;5024072;28;20048;-74
2022/07/12 08:22:20;;;;;;;3.92;2.38;;;;;;;19.13;100.00;97471.53;5019938;28;20048;-74
2022/07/12 08:24:46;;;;;;;4.88;2.47;;;;;;;19.21;100.00;97464.72;5030532;28;20055;-73
2022/07/12 08:27:11;;;;;;;9.52;3.17;;;;;;;19.25;100.00;97464.97;5026445;28;20083;-73
2022/07/12 08:29:38;;;;;;;5.07;2.30;;;;;;;19.26;100.00;97459.25;5024588;28;20044;-73
2022/07/12 08:32:04;;;;;;;11.20;2.30;;;;;;;19.11;100.00;97457.44;5023454;28;20041;-74
2022/07/12 08:34:29;;;;;;;3.60;1.80;;;;;;;19.10;100.00;97463.97;5023774;28;20514;-73
2022/07/12 08:36:55;;;;;;;2.85;1.80;;;;;;;19.19;100.00;97448.72;5025066;28;20116;-73
2022/07/12 08:39:20;;;;;;;4.47;1.92;;;;;;;19.31;100.00;97461.16;5021928;28;20106;-73
2022/07/12 08:41:46;;;;;;;3.63;2.00;;;;;;;19.39;100.00;97457.84;5025568;28;20066;-73
2022/07/12 08:44:11;;;;;;;2.83;1.60;;;;;;;19.56;100.00;97455.56;5026357;28;20044;-73
2022/07/12 08:46:37;;;;;;;2.50;1.33;;;;;;;19.68;100.00;97453.31;5026288;28;20391;-73
2022/07/12 08:49:07;;;;;;;2.40;1.17;;;;;;;19.66;100.00;97443.84;5024973;28;20051;-73
2022/07/12 08:51:32;;;;;;;5.73;1.17;;;;;;;19.60;100.00;97443.06;5025056;28;20094;-74
2022/07/12 08:54:08;;;;;;;3.13;1.48;;;;;;;19.54;100.00;97441.47;5023242;28;20041;-74
2022/07/12 08:56:38;;;;;;;5.78;1.55;;;;;;;19.63;100.00;97458.78;5026466;28;20069;-73
2022/07/12 08:59:11;;;;;;;2.03;1.10;;;;;;;19.72;100.00;97473.38;5025652;28;20450;-74
2022/07/12 09:01:44;;;;;;;2.65;1.27;;;;;;;19.68;100.00;97453.31;5031373;28;20040;-74
2022/07/12 09:04:19;;;;;;;2.78;1.17;;;;;;;19.72;100.00;97459.81;5025941;28;20095;-73
2022/07/12 09:06:46;;;;;;;5.28;1.40;;;;;;;19.72;100.00;97451.66;5023680;28;20037;-73
2022/07/12 09:09:12;;;;;;;3.58;1.30;;;;;;;19.80;100.00;97454.88;5025289;28;20313;-73
2022/07/12 09:11:39;;;;;;;2.83;1.30;;;;;;;19.93;100.00;97454.22;5024665;28;20038;-74
2022/07/12 09:14:05;;;;;;;2.90;1.30;;;;;;;20.03;100.00;97454.13;5024113;28;20124;-74
2022/07/12 09:16:30;;;;;;;6.43;1.02;;;;;;;20.15;100.00;97451.84;5022003;28;20052;-73
2022/07/12 09:19:17;;;;;;;3.35;1.20;;;;;;;20.04;100.00;97447.59;5020484;28;20304;-73
2022/07/12 09:21:49;;;;;;;4.47;1.30;;;;;;;20.15;100.00;97456.47;5001526;28;20057;-73
2022/07/12 09:24:15;;;;;;;2.53;1.25;;;;;;;20.35;100.00;97461.72;5021507;28;20094;-73
2022/07/12 09:26:40;;;;;;;2.90;1.00;;;;;;;20.45;100.00;97456.19;5024089;28;20033;-74
2022/07/12 09:29:09;;;;;;;2.00;1.08;;;;;;;20.63;100.00;97459.31;5020832;28;20558;-74
2022/07/12 09:36:06;;;;;;;2.28;1.20;;;;;;;;;;5024762;28;20369;-74
2022/07/12 09:37:10;;;;;;;2.20;1.02;;;;;;;20.86;100.00;97445.69;5019963;28;20033;-73
2022/07/12 09:39:38;;;;;;;1.90;1.00;;;;;;;20.90;100.00;97447.81;5023303;28;20498;-73
2022/07/12 09:42:06;;;;;;;2.17;1.00;;;;;;;20.92;100.00;97453.78;5023224;28;20185;-74
2022/07/12 09:44:32;;;;;;;2.20;1.02;;;;;;;20.79;100.00;97455.31;5021980;28;20120;-73
2022/07/12 09:46:59;;;;;;;1.73;0.93;;;;;;;20.97;100.00;97459.16;5023384;28;20033;-73
2022/07/12 09:49:26;;;;;;;2.88;0.90;;;;;;;21.12;100.00;97458.97;5021607;28;20258;-73
2022/07/12 09:51:55;;;;;;;2.30;1.00;;;;;;;21.12;100.00;97456.25;5025190;28;20727;-74
2022/07/12 09:54:27;;;;;;;5.45;1.13;;;;;;;21.13;100.00;97455.13;5021227;28;20404;-74
2022/07/12 09:56:55;;;;;;;1.75;0.85;;;;;;;21.13;100.00;97450.50;5028300;28;20047;-73
2022/07/12 09:59:24;;;;;;;3.22;0.90;;;;;;;21.33;100.00;97451.38;5018918;28;20025;-73
2022/07/12 10:01:51;;;;;;;3.58;0.80;;;;;;;21.36;100.00;97453.50;5021138;28;20072;-73
2022/07/12 10:04:23;;;;;;;1.75;0.90;;;;;;;21.54;100.00;97452.69;5021025;28;20028;-74
2022/07/12 10:06:50;;;;;;;1.80;0.80;;;;;;;21.65;100.00;97448.72;5024769;28;20857;-74
2022/07/12 10:09:16;;;;;;;2.05;0.85;;;;;;;21.81;100.00;97449.28;5019404;28;20033;-73
2022/07/12 10:11:42;;;;;;;1.80;0.82;;;;;;;21.96;99.18;97459.94;5023670;28;20041;-73
2022/07/12 10:14:12;;;;;;;1.70;0.80;;;;;;;22.06;100.00;97456.22;5020431;28;20122;-74
2022/07/12 10:16:40;;;;;;;2.90;0.70;;;;;;;21.97;96.13;97455.31;5024640;28;20082;-73
2022/07/12 10:19:24;;;;;;;5.18;1.10;;;;;;;22.13;97.23;97464.06;5021239;28;20463;-74
2022/07/12 10:21:55;;;;;;;1.70;0.80;;;;;;;22.25;96.05;97461.66;5024009;28;20095;-73
2022/07/12 10:24:32;;;;;;;4.13;0.98;;;;;;;22.28;96.86;97458.34;5024322;28;20087;-74
2022/07/12 10:27:21;;;;;;;2.17;0.82;;;;;;;22.44;92.96;97456.97;5024295;28;20037;-73
2022/07/12 10:29:49;;;;;;;3.50;0.80;;;;;;;22.71;96.26;97458.09;5019570;28;20056;-74
2022/07/12 10:32:27;;;;;;;2.42;1.10;;;;;;;22.70;93.79;97456.47;5019227;28;20519;-74
2022/07/12 10:34:59;;;;;;;3.08;0.88;;;;;;;22.89;93.68;97461.88;5023544;28;20119;-74
2022/07/12 10:37:25;;;;;;;1.73;0.90;;;;;;;22.82;94.34;97456.78;5019620;28;20148;-73
2022/07/12 10:40:22;;;;;;;1.80;0.80;;;;;;;23.16;100.00;97441.94;4324875;28;10000177;-73
2022/07/12 10:43:13;;;;;;;2.20;0.80;;;;;;;23.54;92.24;97454.19;4992085;28;20100;-73
2022/07/12 10:45:43;;;;;;;1.77;0.80;;;;;;;23.66;89.49;97452.84;5020325;28;20068;-74
2022/07/12 10:48:19;;;;;;;2.28;0.90;;;;;;;23.85;85.82;97445.28;5019884;28;20048;-74
2022/07/12 10:50:55;;;;;;;2.40;0.80;;;;;;;24.06;87.26;97443.69;5018432;28;20047;-73
2022/07/12 10:53:25;;;;;;;3.35;1.00;;;;;;;24.30;82.96;97442.53;5018166;28;20495;-74
2022/07/12 10:56:11;;;;;;;5.47;0.90;;;;;;;24.55;86.08;97447.34;5022154;28;20037;-74
2022/07/12 10:58:49;;;;;;;2.40;0.80;;;;;;;24.68;85.03;97440.97;5021353;28;20669;-74
2022/07/12 11:01:19;;;;;;;1.80;0.70;;;;;;;24.66;78.31;97437.72;5019470;28;20037;-74
2022/07/12 11:03:54;;;;;;;1.95;0.90;;;;;;;25.06;81.03;97437.75;5026148;28;20040;-74
2022/07/12 11:06:21;;;;;;;2.03;0.90;;;;;;;25.35;74.61;97439.88;5018324;28;20479;-74
2022/07/12 11:08:49;;;;;;;1.50;0.63;;;;;;;25.79;71.28;97444.28;5021148;28;20033;-73
2022/07/12 11:11:15;;;;;;;1.73;0.80;;;;;;;26.21;69.77;97436.31;5019447;28;20150;-74
2022/07/12 11:13:41;;;;;;;2.20;0.70;;;;;;;26.47;68.63;97440.97;5017986;28;20026;-73
2022/07/12 11:16:07;;;;;;;1.60;0.80;;;;;;;26.30;73.53;97437.13;5020834;28;20128;-74
2022/07/12 11:18:34;;;;;;;1.90;0.90;;;;;;;26.19;73.59;97440.53;5021044;28;20509;-74
2022/07/12 11:21:01;;;;;;;1.70;0.70;;;;;;;26.56;65.60;97436.25;5020291;28;20051;-73
2022/07/12 11:23:28;;;;;;;2.38;0.80;;;;;;;26.91;65.30;97432.22;5019164;28;20533;-73
2022/07/12 11:25:55;;;;;;;1.55;0.77;;;;;;;27.75;57.71;97435.09;5017918;28;20063;-73
2022/07/12 11:28:21;;;;;;;2.85;0.90;;;;;;;28.24;50.87;97433.34;5018573;28;20029;-74
2022/07/12 11:30:53;;;;;;;1.95;0.80;;;;;;;29.00;45.62;97432.00;5020823;28;20068;-73
2022/07/12 11:33:24;;;;;;;3.33;2.08;;;;;;;30.58;42.40;97427.13;5019281;28;20049;-73
2022/07/12 11:35:51;;;;;;;1.75;0.70;;;;;;;32.17;34.20;97412.59;5021080;28;20383;-73